LGZA/ZTH METAR and TAF weather

Enter ICAO airport designator
Station Type Date Time Source
LGZA METAR 2020/01/27 10:50 UTC NOAA

LGZA 271050Z 34007KT 9999 FEW018 SCT025 BKN070 15/10 Q1019


Station Type Date Time Source
LGZA Decoded METAR 2020/01/27 10:50 UTC NOAA

Zakinthos Airport , Greece (LGZA) 37-45N 020-53E
Jan 27, 2020 - 05:50 AM EST / 2020.01.27 1050 UTC
Wind: from the NNW (340 degrees) at 8 MPH (7 KT):0
Visibility: greater than 7 mile(s):0
Sky conditions: mostly cloudy
Temperature: 59 F (15 C)
Dew Point: 50 F (10 C)
Relative Humidity: 72%
Pressure (altimeter): 30.09 in. Hg (1019 hPa)
ob: LGZA 271050Z 34007KT 9999 FEW018 SCT025 BKN070 15/10 Q1019
cycle: 11

Station Type Date Time Source
LGZA TAF 2011/11/25 15:06 UTC NOAA

TAF TAF LGZA 251400Z 2515/2603 02012KT 9999 FEW025 SCT035 BKN080 PROB30
TEMPO 2518/2603 8000 RA PROB30 2522/2603 5000 BR SCT010

Example: see airport list